Benbecula, United Kingdom
Current Conditions -  °F | °C
As of 12:50 PM on Saturday 22 Nov 2014 (Local Time) from EGPL Reporting Station
Broken Clouds Broken Clouds  
Wind Chill: 50°   Ceiling: 2700
Heat Index: 50°   Visibility: 6mi
Dew Point: 48°   Wind: 17mph
Humidity: 94%   Direction: 240°WSW
Pressure: 29.65"   Gusts: NA
Location:  57.4°N, 7.2°W
Report Text: EGPL 221250Z AUTO 24015KT 9999 SCT010/// SCT020/// BKN027/// 10/09 Q1004
Loading
Personal Weather Stations






























Interactive Weather Map New forecast layout! Learn more

10-Day Weather Forecast

Advertisements
Track Severe Weather on mobile